Alexander von Humboldt II — DDKK2 — position and weather

sailwx.info

Track history (hours):
 
Tides and Currents Weather Stations Pressure Air Temp Water Temp Dewpoint Dewpoint Depression Visibility Wind Speed Wind Dir Waves Ship Positions

Alexander von Humboldt II

Ship's website: https://www.alex-2.de/en/

Last reported at 2019-Feb-16 04:31 UTC. Time now 2019-Feb-16 04:36 UTC.
Position N 28°28' W 016°15'.

Length 65 m; draft 4.6 m.

Type: Sailing vessel. MMSI: 218768000.

Date/timePositionNaut miles runAvg speedWind from/ knotsBaromVisibWave heightAir tempDewpointWater temp
2019-Feb-16 04:31N 28°28' W 016°15'0 0.0
2019-Feb-16 04:01N 28°28' W 016°15'0 0.0
2019-Feb-16 03:31N 28°28' W 016°15'0 0.0
2019-Feb-16 03:00N 28°28' W 016°15'0 0.0
2019-Feb-16 02:31N 28°28' W 016°15'0 0.0
2019-Feb-16 02:01N 28°28' W 016°15'0 0.0
2019-Feb-16 01:31N 28°28' W 016°15'0 0.0
2019-Feb-16 01:00N 28°28' W 016°15'0 0.0
2019-Feb-16 00:30N 28°28' W 016°15'0 0.0
2019-Feb-16 00:00N 28°28' W 016°15'0 0.0
2019-Feb-15 23:31N 28°28' W 016°15'0 0.0
2019-Feb-15 23:00N 28°28' W 016°15'0 0.0
2019-Feb-15 22:30N 28°28' W 016°15'0 0.0
2019-Feb-15 22:01N 28°28' W 016°15'0 0.0
2019-Feb-15 21:30N 28°28' W 016°15'0 0.0
2019-Feb-15 21:00N 28°28' W 016°15'0 0.0
2019-Feb-15 20:30N 28°28' W 016°15'0 0.0
2019-Feb-15 20:00N 28°28' W 016°15'0 0.0
2019-Feb-15 19:30N 28°28' W 016°15'0 0.0
2019-Feb-15 19:00N 28°28' W 016°15'0 0.0
2019-Feb-15 18:30N 28°28' W 016°15'0 0.0
2019-Feb-15 18:00N 28°28' W 016°15'0 0.0
2019-Feb-15 17:30N 28°28' W 016°15'0 0.0
2019-Feb-15 17:00N 28°28' W 016°15'0 0.0
2019-Feb-15 16:30N 28°28' W 016°15'0 0.0
2019-Feb-15 16:00N 28°28' W 016°15'0 0.0
2019-Feb-15 15:30N 28°28' W 016°15'0 0.0
2019-Feb-15 15:00N 28°28' W 016°15'0 0.0
2019-Feb-15 14:30N 28°28' W 016°15'0 0.0
2019-Feb-15 14:00N 28°28' W 016°15'0 0.0
2019-Feb-15 13:30N 28°28' W 016°15'0 0.0
2019-Feb-15 13:01N 28°28' W 016°15'0 0.0
2019-Feb-15 12:30N 28°28' W 016°15'0 0.0
2019-Feb-15 12:00N 28°28' W 016°15'0 0.0
2019-Feb-15 11:30N 28°28' W 016°15'0 0.0
2019-Feb-15 11:00N 28°28' W 016°15'0 0.0
2019-Feb-15 10:30N 28°28' W 016°15'0 0.0
2019-Feb-15 10:00N 28°28' W 016°15'1 1.1
2019-Feb-15 09:30N 28°27' W 016°14'0 0.5
2019-Feb-15 09:00N 28°28' W 016°14'3 5.6
2019-Feb-15 08:30N 28°28' W 016°11'2 4.0
2019-Feb-15 08:00N 28°28' W 016°09'1 1.4
2019-Feb-15 07:30N 28°28' W 016°08'1 2.0
2019-Feb-15 07:00N 28°29' W 016°08'1 2.4
2019-Feb-15 06:30N 28°30' W 016°07'2 4.3
2019-Feb-15 06:00N 28°31' W 016°05'2 4.0
2019-Feb-15 05:30N 28°33' W 016°04'23 3.5
2019-Feb-14 23:00N 28°48' W 016°24'40 4.4 240 / 271018.0 21.0 2.318.5
2019-Feb-14 14:00N 28°24' W 017°00'25 7.2 180 / 301020.010.8 22.513.719.0
2019-Feb-14 10:29N 28°09' W 017°23'3 7.2
2019-Feb-14 10:00N 28°06' W 017°23'2 4.7
2019-Feb-14 09:30N 28°05' W 017°21'1 2.3
2019-Feb-14 08:59N 28°05' W 017°20'0 0.2
2019-Feb-14 08:29N 28°05' W 017°20'0 0.0
2019-Feb-14 07:56N 28°05' W 017°20'0 0.0
2019-Feb-14 07:26N 28°05' W 017°20'0 0.0
2019-Feb-14 06:56N 28°05' W 017°20'0 0.0
2019-Feb-14 06:26N 28°05' W 017°20'0 0.0
2019-Feb-14 05:56N 28°05' W 017°20'0 0.0
2019-Feb-14 05:26N 28°05' W 017°20'0 0.0
2019-Feb-14 04:56N 28°05' W 017°20'0 0.0
2019-Feb-14 04:26N 28°05' W 017°20'0 0.0
2019-Feb-14 03:56N 28°05' W 017°20'0 0.0
2019-Feb-14 02:56N 28°05' W 017°20'0 0.0
2019-Feb-14 02:26N 28°05' W 017°20'0 0.0
2019-Feb-14 01:56N 28°05' W 017°20'0 0.0
2019-Feb-14 01:26N 28°05' W 017°20'0 0.0
2019-Feb-14 00:56N 28°05' W 017°20'0 0.0
2019-Feb-14 00:26N 28°05' W 017°20'0 0.0
2019-Feb-13 23:59N 28°05' W 017°20'0 0.0
2019-Feb-13 23:29N 28°05' W 017°20'0 0.0
2019-Feb-13 22:59N 28°05' W 017°20'0 0.0
2019-Feb-13 22:29N 28°05' W 017°20'0 0.0
2019-Feb-13 21:59N 28°05' W 017°20'0 0.0
2019-Feb-13 21:29N 28°05' W 017°20'0 0.0
2019-Feb-13 20:59N 28°05' W 017°20'0 0.0
2019-Feb-13 20:29N 28°05' W 017°20'0 0.0
2019-Feb-13 19:59N 28°05' W 017°20'0 0.0
2019-Feb-13 19:29N 28°05' W 017°20'0 0.0
2019-Feb-13 18:59N 28°05' W 017°20'0 0.0
2019-Feb-13 18:29N 28°05' W 017°20'0 0.0
2019-Feb-13 17:59N 28°05' W 017°20'0 0.0
2019-Feb-13 17:29N 28°05' W 017°20'0 0.0
2019-Feb-13 16:59N 28°05' W 017°20'0 0.0
2019-Feb-13 16:26N 28°05' W 017°20'0 0.0
2019-Feb-13 15:56N 28°05' W 017°20'0 0.0
2019-Feb-13 15:26N 28°05' W 017°20'0 0.0
2019-Feb-13 14:56N 28°05' W 017°20'0 0.0
2019-Feb-13 14:26N 28°05' W 017°20'0 0.0
2019-Feb-13 13:56N 28°05' W 017°20'0 0.0
2019-Feb-13 13:26N 28°05' W 017°20'0 0.0
2019-Feb-13 12:56N 28°05' W 017°20'0 0.0
2019-Feb-13 12:26N 28°05' W 017°20'0 0.0
2019-Feb-13 11:56N 28°05' W 017°20'0 0.0
2019-Feb-13 11:29N 28°05' W 017°20'0 0.0
2019-Feb-13 10:59N 28°05' W 017°20'0 0.0
2019-Feb-13 10:29N 28°05' W 017°20'0 0.0
2019-Feb-13 09:59N 28°05' W 017°20'0 0.0
2019-Feb-13 09:31N 28°05' W 017°20'0 0.0
2019-Feb-13 09:01N 28°05' W 017°20'47 2.0
2019-Feb-12 09:48N 28°38' W 017°57'6 0.2
2019-Feb-11 07:47N 28°41' W 018°03'3 5.3
2019-Feb-11 07:13N 28°44' W 018°05'1 1.7
2019-Feb-11 06:55N 28°44' W 018°05'0 0.2
2019-Feb-11 04:26N 28°44' W 018°05'1 2.4
2019-Feb-11 03:59N 28°45' W 018°05'2 4.6
2019-Feb-11 03:30N 28°47' W 018°06'7 5.4
2019-Feb-11 02:07N 28°55' W 018°05'5 5.2
2019-Feb-11 01:07N 28°59' W 018°03'9 4.8
2019-Feb-10 23:09N 29°08' W 017°58'1 4.6
2019-Feb-10 23:00N 29°08' W 017°57'2 4.5
2019-Feb-10 22:29N 29°10' W 017°56'2 4.5
2019-Feb-10 22:00N 29°12' W 017°55'4 5.9
2019-Feb-10 21:23N 29°16' W 017°53'3 6.7
2019-Feb-10 20:52N 29°18' W 017°51'15 6.9
2019-Feb-10 18:46N 29°30' W 017°41'2 8.3
2019-Feb-10 18:30N 29°32' W 017°40'13 8.4
2019-Feb-10 16:59N 29°43' W 017°32'33 4.1
2019-Feb-10 09:00N 29°42' W 016°54'80 5.0 090 / 161024.010.8 18.514.518.5
2019-Feb-09 16:49N 28°34' W 016°05'1 3.8
2019-Feb-09 16:30N 28°33' W 016°05'2 3.9
2019-Feb-09 16:00N 28°31' W 016°06'3 5.2
2019-Feb-09 15:31N 28°30' W 016°08'3 5.2
2019-Feb-09 15:00N 28°29' W 016°11'3 5.1
2019-Feb-09 14:31N 28°27' W 016°13'1 2.2
2019-Feb-09 13:58N 28°28' W 016°15'0 0.0
2019-Feb-09 13:28N 28°28' W 016°15'0 0.0
2019-Feb-09 12:58N 28°28' W 016°15'0 0.0
2019-Feb-09 12:28N 28°28' W 016°15'0 0.0
2019-Feb-09 11:58N 28°28' W 016°15'0 0.0
2019-Feb-09 11:28N 28°28' W 016°15'0 0.0
2019-Feb-09 10:58N 28°28' W 016°15'0 0.0
2019-Feb-09 10:28N 28°28' W 016°15'0 0.0
2019-Feb-09 09:58N 28°28' W 016°15'0 0.0
2019-Feb-09 09:28N 28°28' W 016°15'0 0.0
2019-Feb-09 08:58N 28°28' W 016°15'0 0.0
2019-Feb-09 08:28N 28°28' W 016°15'0 0.0
2019-Feb-09 07:58N 28°28' W 016°15'0 0.0
2019-Feb-09 07:28N 28°28' W 016°15'0 0.0
2019-Feb-09 06:58N 28°28' W 016°15'0 0.0
2019-Feb-09 06:28N 28°28' W 016°15'0 0.0
2019-Feb-09 05:58N 28°28' W 016°15'0 0.0
2019-Feb-09 05:28N 28°28' W 016°15'0 0.0
2019-Feb-09 04:58N 28°28' W 016°15'0 0.0
2019-Feb-09 04:28N 28°28' W 016°15'0 0.0
2019-Feb-09 03:58N 28°28' W 016°15'0 0.0
2019-Feb-09 03:28N 28°28' W 016°15'0 0.0
2019-Feb-09 02:58N 28°28' W 016°15'0 0.0
2019-Feb-09 02:28N 28°28' W 016°15'0 0.0
2019-Feb-09 01:58N 28°28' W 016°15'0 0.0
2019-Feb-09 01:28N 28°28' W 016°15'0 0.0
2019-Feb-09 00:58N 28°28' W 016°15'0 0.0
2019-Feb-09 00:28N 28°28' W 016°15'0 0.0
2019-Feb-08 23:58N 28°28' W 016°15'0 0.0
2019-Feb-08 23:28N 28°28' W 016°15'0 0.0
2019-Feb-08 22:58N 28°28' W 016°15'0 0.0
2019-Feb-08 22:28N 28°28' W 016°15'0 0.0
2019-Feb-08 21:58N 28°28' W 016°15'0 0.0
2019-Feb-08 21:28N 28°28' W 016°15'0 0.0
2019-Feb-08 20:58N 28°28' W 016°15'0 0.0
2019-Feb-08 20:28N 28°28' W 016°15'0 0.0
2019-Feb-08 19:58N 28°28' W 016°15'0 0.0
2019-Feb-08 19:28N 28°28' W 016°15'0 0.0
2019-Feb-08 18:58N 28°28' W 016°15'0 0.0
2019-Feb-08 18:28N 28°28' W 016°15'0 0.0
2019-Feb-08 17:58N 28°28' W 016°15'0 0.0
2019-Feb-08 17:28N 28°28' W 016°15'0 0.0
2019-Feb-08 16:58N 28°28' W 016°15'0 0.0
2019-Feb-08 16:28N 28°28' W 016°15'0 0.0
2019-Feb-08 15:58N 28°28' W 016°15'0 0.0
2019-Feb-08 15:28N 28°28' W 016°15'0 0.0
2019-Feb-08 14:58N 28°28' W 016°15'0 0.0
2019-Feb-08 14:28N 28°28' W 016°15'0 0.0
2019-Feb-08 13:58N 28°28' W 016°15'0 0.0
2019-Feb-08 13:28N 28°28' W 016°15'0 0.0
2019-Feb-08 12:58N 28°28' W 016°15'0 0.0
2019-Feb-08 12:28N 28°28' W 016°15'0 0.0
2019-Feb-08 11:58N 28°28' W 016°15'0 0.0
2019-Feb-08 11:28N 28°28' W 016°15'0 0.0
2019-Feb-08 10:58N 28°28' W 016°15'0 0.0
2019-Feb-08 10:28N 28°28' W 016°15'0 0.0
2019-Feb-08 09:58N 28°28' W 016°15'0 0.0
2019-Feb-08 09:28N 28°28' W 016°15'0 0.0
2019-Feb-08 08:58N 28°28' W 016°15'0 0.0
2019-Feb-08 08:28N 28°28' W 016°15'0 0.0
2019-Feb-08 07:58N 28°28' W 016°15'0 0.0
2019-Feb-08 07:28N 28°28' W 016°15'0 0.0
2019-Feb-08 06:58N 28°28' W 016°15'0 0.0
2019-Feb-08 06:28N 28°28' W 016°15'0 0.0
2019-Feb-08 05:58N 28°28' W 016°15'0 0.0
2019-Feb-08 05:28N 28°28' W 016°15'0 0.0
2019-Feb-08 04:58N 28°28' W 016°15'0 0.0
2019-Feb-08 04:28N 28°28' W 016°15'0 0.0
2019-Feb-08 03:58N 28°28' W 016°15'0 0.0
2019-Feb-08 03:28N 28°28' W 016°15'0 0.0
2019-Feb-08 02:58N 28°28' W 016°15'0 0.0
2019-Feb-08 02:28N 28°28' W 016°15'0 0.0
2019-Feb-08 01:58N 28°28' W 016°15'0 0.0
2019-Feb-08 01:28N 28°28' W 016°15'0 0.0
2019-Feb-08 00:58N 28°28' W 016°15'0 0.0
2019-Feb-08 00:28N 28°28' W 016°15'0 0.0
2019-Feb-07 23:58N 28°28' W 016°15'0 0.0
2019-Feb-07 23:28N 28°28' W 016°15'0 0.0
2019-Feb-07 22:58N 28°28' W 016°15'0 0.0
2019-Feb-07 22:28N 28°28' W 016°15'0 0.0
2019-Feb-07 21:58N 28°28' W 016°15'0 0.0
2019-Feb-07 21:28N 28°28' W 016°15'0 0.0
2019-Feb-07 20:58N 28°28' W 016°15'0 0.0
2019-Feb-07 20:28N 28°28' W 016°15'0 0.0
2019-Feb-07 19:58N 28°28' W 016°15'0 0.0
2019-Feb-07 19:28N 28°28' W 016°15'0 0.0
2019-Feb-07 18:58N 28°28' W 016°15'0 0.0
2019-Feb-07 18:28N 28°28' W 016°15'0 0.0
2019-Feb-07 17:58N 28°28' W 016°15'0 0.0
2019-Feb-07 17:28N 28°28' W 016°15'0 0.0
2019-Feb-07 16:58N 28°28' W 016°15'0 0.0
2019-Feb-07 16:28N 28°28' W 016°15'0 0.0
2019-Feb-07 15:58N 28°28' W 016°15'0 0.0
2019-Feb-07 15:28N 28°28' W 016°15'0 0.0
2019-Feb-07 14:58N 28°28' W 016°15'0 0.0
2019-Feb-07 14:28N 28°28' W 016°15'0 0.0
2019-Feb-07 13:58N 28°28' W 016°15'0 0.0
2019-Feb-07 13:28N 28°28' W 016°15'0 0.0
2019-Feb-07 12:58N 28°28' W 016°15'0 0.0
2019-Feb-07 12:28N 28°28' W 016°15'0 0.0
2019-Feb-07 11:58N 28°28' W 016°15'0 0.0
2019-Feb-07 11:28N 28°28' W 016°15'0 0.0
2019-Feb-07 10:58N 28°28' W 016°15'0 0.0
2019-Feb-07 10:28N 28°28' W 016°15'0 0.0
2019-Feb-07 10:00N 28°28' W 016°15'1 2.5
2019-Feb-07 09:31N 28°28' W 016°13'2 3.5
2019-Feb-07 09:01N 28°26' W 016°13'1 2.4
2019-Feb-07 08:31N 28°25' W 016°14'1 2.5
2019-Feb-07 08:00N 28°24' W 016°15'1 2.5
2019-Feb-07 07:31N 28°23' W 016°15'1 2.9
2019-Feb-07 07:00N 28°22' W 016°16'5 3.7
2019-Feb-07 05:44N 28°18' W 016°18'1 3.7
2019-Feb-07 05:28N 28°17' W 016°19'21 4.2
2019-Feb-07 00:30N 27°58' W 016°29'40 2.8
2019-Feb-06 10:00N 28°12' W 017°12'0 0.0 1025.0 5.4 21.0 6.319.5
2019-Feb-06 07:00N 28°12' W 017°12'   1023.910.8 18.510.819.0
Track history (hours):
 
Tides and Currents Weather Stations Pressure Air Temp Water Temp Dewpoint Dewpoint Depression Visibility Wind Speed Wind Dir Waves Ship Positions

Alexander von Humboldt II

Ship's website: https://www.alex-2.de/en/

Last reported at 2019-Feb-16 04:31 UTC. Time now 2019-Feb-16 04:36 UTC.
Position N 28°28' W 016°15'.

Length 65 m; draft 4.6 m.

Type: Sailing vessel. MMSI: 218768000.

Date/timePositionNaut miles runAvg speedWind from/ knotsBaromVisibWave heightAir tempDewpointWater temp
2019-Feb-16 04:31N 28°28' W 016°15'0 0.0
2019-Feb-16 04:01N 28°28' W 016°15'0 0.0
2019-Feb-16 03:31N 28°28' W 016°15'0 0.0
2019-Feb-16 03:00N 28°28' W 016°15'0 0.0
2019-Feb-16 02:31N 28°28' W 016°15'0 0.0
2019-Feb-16 02:01N 28°28' W 016°15'0 0.0
2019-Feb-16 01:31N 28°28' W 016°15'0 0.0
2019-Feb-16 01:00N 28°28' W 016°15'0 0.0
2019-Feb-16 00:30N 28°28' W 016°15'0 0.0
2019-Feb-16 00:00N 28°28' W 016°15'0 0.0
2019-Feb-15 23:31N 28°28' W 016°15'0 0.0
2019-Feb-15 23:00N 28°28' W 016°15'0 0.0
2019-Feb-15 22:30N 28°28' W 016°15'0 0.0
2019-Feb-15 22:01N 28°28' W 016°15'0 0.0
2019-Feb-15 21:30N 28°28' W 016°15'0 0.0
2019-Feb-15 21:00N 28°28' W 016°15'0 0.0
2019-Feb-15 20:30N 28°28' W 016°15'0 0.0
2019-Feb-15 20:00N 28°28' W 016°15'0 0.0
2019-Feb-15 19:30N 28°28' W 016°15'0 0.0
2019-Feb-15 19:00N 28°28' W 016°15'0 0.0
2019-Feb-15 18:30N 28°28' W 016°15'0 0.0
2019-Feb-15 18:00N 28°28' W 016°15'0 0.0
2019-Feb-15 17:30N 28°28' W 016°15'0 0.0
2019-Feb-15 17:00N 28°28' W 016°15'0 0.0
2019-Feb-15 16:30N 28°28' W 016°15'0 0.0
2019-Feb-15 16:00N 28°28' W 016°15'0 0.0
2019-Feb-15 15:30N 28°28' W 016°15'0 0.0
2019-Feb-15 15:00N 28°28' W 016°15'0 0.0
2019-Feb-15 14:30N 28°28' W 016°15'0 0.0
2019-Feb-15 14:00N 28°28' W 016°15'0 0.0
2019-Feb-15 13:30N 28°28' W 016°15'0 0.0
2019-Feb-15 13:01N 28°28' W 016°15'0 0.0
2019-Feb-15 12:30N 28°28' W 016°15'0 0.0
2019-Feb-15 12:00N 28°28' W 016°15'0 0.0
2019-Feb-15 11:30N 28°28' W 016°15'0 0.0
2019-Feb-15 11:00N 28°28' W 016°15'0 0.0
2019-Feb-15 10:30N 28°28' W 016°15'0 0.0
2019-Feb-15 10:00N 28°28' W 016°15'1 1.1
2019-Feb-15 09:30N 28°27' W 016°14'0 0.5
2019-Feb-15 09:00N 28°28' W 016°14'3 5.6
2019-Feb-15 08:30N 28°28' W 016°11'2 4.0
2019-Feb-15 08:00N 28°28' W 016°09'1 1.4
2019-Feb-15 07:30N 28°28' W 016°08'1 2.0
2019-Feb-15 07:00N 28°29' W 016°08'1 2.4
2019-Feb-15 06:30N 28°30' W 016°07'2 4.3
2019-Feb-15 06:00N 28°31' W 016°05'2 4.0
2019-Feb-15 05:30N 28°33' W 016°04'23 3.5
2019-Feb-14 23:00N 28°48' W 016°24'40 4.4 240 / 271018.0 21.0 2.318.5
2019-Feb-14 14:00N 28°24' W 017°00'25 7.2 180 / 301020.010.8 22.513.719.0
2019-Feb-14 10:29N 28°09' W 017°23'3 7.2
2019-Feb-14 10:00N 28°06' W 017°23'2 4.7
2019-Feb-14 09:30N 28°05' W 017°21'1 2.3
2019-Feb-14 08:59N 28°05' W 017°20'0 0.2
2019-Feb-14 08:29N 28°05' W 017°20'0 0.0
2019-Feb-14 07:56N 28°05' W 017°20'0 0.0
2019-Feb-14 07:26N 28°05' W 017°20'0 0.0
2019-Feb-14 06:56N 28°05' W 017°20'0 0.0
2019-Feb-14 06:26N 28°05' W 017°20'0 0.0
2019-Feb-14 05:56N 28°05' W 017°20'0 0.0
2019-Feb-14 05:26N 28°05' W 017°20'0 0.0
2019-Feb-14 04:56N 28°05' W 017°20'0 0.0
2019-Feb-14 04:26N 28°05' W 017°20'0 0.0
2019-Feb-14 03:56N 28°05' W 017°20'0 0.0
2019-Feb-14 02:56N 28°05' W 017°20'0 0.0
2019-Feb-14 02:26N 28°05' W 017°20'0 0.0
2019-Feb-14 01:56N 28°05' W 017°20'0 0.0
2019-Feb-14 01:26N 28°05' W 017°20'0 0.0
2019-Feb-14 00:56N 28°05' W 017°20'0 0.0
2019-Feb-14 00:26N 28°05' W 017°20'0 0.0
2019-Feb-13 23:59N 28°05' W 017°20'0 0.0
2019-Feb-13 23:29N 28°05' W 017°20'0 0.0
2019-Feb-13 22:59N 28°05' W 017°20'0 0.0
2019-Feb-13 22:29N 28°05' W 017°20'0 0.0
2019-Feb-13 21:59N 28°05' W 017°20'0 0.0
2019-Feb-13 21:29N 28°05' W 017°20'0 0.0
2019-Feb-13 20:59N 28°05' W 017°20'0 0.0
2019-Feb-13 20:29N 28°05' W 017°20'0 0.0
2019-Feb-13 19:59N 28°05' W 017°20'0 0.0
2019-Feb-13 19:29N 28°05' W 017°20'0 0.0
2019-Feb-13 18:59N 28°05' W 017°20'0 0.0
2019-Feb-13 18:29N 28°05' W 017°20'0 0.0
2019-Feb-13 17:59N 28°05' W 017°20'0 0.0
2019-Feb-13 17:29N 28°05' W 017°20'0 0.0
2019-Feb-13 16:59N 28°05' W 017°20'0 0.0
2019-Feb-13 16:26N 28°05' W 017°20'0 0.0
2019-Feb-13 15:56N 28°05' W 017°20'0 0.0
2019-Feb-13 15:26N 28°05' W 017°20'0 0.0
2019-Feb-13 14:56N 28°05' W 017°20'0 0.0
2019-Feb-13 14:26N 28°05' W 017°20'0 0.0
2019-Feb-13 13:56N 28°05' W 017°20'0 0.0
2019-Feb-13 13:26N 28°05' W 017°20'0 0.0
2019-Feb-13 12:56N 28°05' W 017°20'0 0.0
2019-Feb-13 12:26N 28°05' W 017°20'0 0.0
2019-Feb-13 11:56N 28°05' W 017°20'0 0.0
2019-Feb-13 11:29N 28°05' W 017°20'0 0.0
2019-Feb-13 10:59N 28°05' W 017°20'0 0.0
2019-Feb-13 10:29N 28°05' W 017°20'0 0.0
2019-Feb-13 09:59N 28°05' W 017°20'0 0.0
2019-Feb-13 09:31N 28°05' W 017°20'0 0.0
2019-Feb-13 09:01N 28°05' W 017°20'47 2.0
2019-Feb-12 09:48N 28°38' W 017°57'6 0.2
2019-Feb-11 07:47N 28°41' W 018°03'3 5.3
2019-Feb-11 07:13N 28°44' W 018°05'1 1.7
2019-Feb-11 06:55N 28°44' W 018°05'0 0.2
2019-Feb-11 04:26N 28°44' W 018°05'1 2.4
2019-Feb-11 03:59N 28°45' W 018°05'2 4.6
2019-Feb-11 03:30N 28°47' W 018°06'7 5.4
2019-Feb-11 02:07N 28°55' W 018°05'5 5.2
2019-Feb-11 01:07N 28°59' W 018°03'9 4.8
2019-Feb-10 23:09N 29°08' W 017°58'1 4.6
2019-Feb-10 23:00N 29°08' W 017°57'2 4.5
2019-Feb-10 22:29N 29°10' W 017°56'2 4.5
2019-Feb-10 22:00N 29°12' W 017°55'4 5.9
2019-Feb-10 21:23N 29°16' W 017°53'3 6.7
2019-Feb-10 20:52N 29°18' W 017°51'15 6.9
2019-Feb-10 18:46N 29°30' W 017°41'2 8.3
2019-Feb-10 18:30N 29°32' W 017°40'13 8.4
2019-Feb-10 16:59N 29°43' W 017°32'33 4.1
2019-Feb-10 09:00N 29°42' W 016°54'80 5.0 090 / 161024.010.8 18.514.518.5
2019-Feb-09 16:49N 28°34' W 016°05'1 3.8
2019-Feb-09 16:30N 28°33' W 016°05'2 3.9
2019-Feb-09 16:00N 28°31' W 016°06'3 5.2
2019-Feb-09 15:31N 28°30' W 016°08'3 5.2
2019-Feb-09 15:00N 28°29' W 016°11'3 5.1
2019-Feb-09 14:31N 28°27' W 016°13'1 2.2
2019-Feb-09 13:58N 28°28' W 016°15'0 0.0
2019-Feb-09 13:28N 28°28' W 016°15'0 0.0
2019-Feb-09 12:58N 28°28' W 016°15'0 0.0
2019-Feb-09 12:28N 28°28' W 016°15'0 0.0
2019-Feb-09 11:58N 28°28' W 016°15'0 0.0
2019-Feb-09 11:28N 28°28' W 016°15'0 0.0
2019-Feb-09 10:58N 28°28' W 016°15'0 0.0
2019-Feb-09 10:28N 28°28' W 016°15'0 0.0
2019-Feb-09 09:58N 28°28' W 016°15'0 0.0
2019-Feb-09 09:28N 28°28' W 016°15'0 0.0
2019-Feb-09 08:58N 28°28' W 016°15'0 0.0
2019-Feb-09 08:28N 28°28' W 016°15'0 0.0
2019-Feb-09 07:58N 28°28' W 016°15'0 0.0
2019-Feb-09 07:28N 28°28' W 016°15'0 0.0
2019-Feb-09 06:58N 28°28' W 016°15'0 0.0
2019-Feb-09 06:28N 28°28' W 016°15'0 0.0
2019-Feb-09 05:58N 28°28' W 016°15'0 0.0
2019-Feb-09 05:28N 28°28' W 016°15'0 0.0
2019-Feb-09 04:58N 28°28' W 016°15'0 0.0
2019-Feb-09 04:28N 28°28' W 016°15'0 0.0
2019-Feb-09 03:58N 28°28' W 016°15'0 0.0
2019-Feb-09 03:28N 28°28' W 016°15'0 0.0
2019-Feb-09 02:58N 28°28' W 016°15'0 0.0
2019-Feb-09 02:28N 28°28' W 016°15'0 0.0
2019-Feb-09 01:58N 28°28' W 016°15'0 0.0
2019-Feb-09 01:28N 28°28' W 016°15'0 0.0
2019-Feb-09 00:58N 28°28' W 016°15'0 0.0
2019-Feb-09 00:28N 28°28' W 016°15'0 0.0
2019-Feb-08 23:58N 28°28' W 016°15'0 0.0
2019-Feb-08 23:28N 28°28' W 016°15'0 0.0
2019-Feb-08 22:58N 28°28' W 016°15'0 0.0
2019-Feb-08 22:28N 28°28' W 016°15'0 0.0
2019-Feb-08 21:58N 28°28' W 016°15'0 0.0
2019-Feb-08 21:28N 28°28' W 016°15'0 0.0
2019-Feb-08 20:58N 28°28' W 016°15'0 0.0
2019-Feb-08 20:28N 28°28' W 016°15'0 0.0
2019-Feb-08 19:58N 28°28' W 016°15'0 0.0
2019-Feb-08 19:28N 28°28' W 016°15'0 0.0
2019-Feb-08 18:58N 28°28' W 016°15'0 0.0
2019-Feb-08 18:28N 28°28' W 016°15'0 0.0
2019-Feb-08 17:58N 28°28' W 016°15'0 0.0
2019-Feb-08 17:28N 28°28' W 016°15'0 0.0
2019-Feb-08 16:58N 28°28' W 016°15'0 0.0
2019-Feb-08 16:28N 28°28' W 016°15'0 0.0
2019-Feb-08 15:58N 28°28' W 016°15'0 0.0
2019-Feb-08 15:28N 28°28' W 016°15'0 0.0
2019-Feb-08 14:58N 28°28' W 016°15'0 0.0
2019-Feb-08 14:28N 28°28' W 016°15'0 0.0
2019-Feb-08 13:58N 28°28' W 016°15'0 0.0
2019-Feb-08 13:28N 28°28' W 016°15'0 0.0
2019-Feb-08 12:58N 28°28' W 016°15'0 0.0
2019-Feb-08 12:28N 28°28' W 016°15'0 0.0
2019-Feb-08 11:58N 28°28' W 016°15'0 0.0
2019-Feb-08 11:28N 28°28' W 016°15'0 0.0
2019-Feb-08 10:58N 28°28' W 016°15'0 0.0
2019-Feb-08 10:28N 28°28' W 016°15'0 0.0
2019-Feb-08 09:58N 28°28' W 016°15'0 0.0
2019-Feb-08 09:28N 28°28' W 016°15'0 0.0
2019-Feb-08 08:58N 28°28' W 016°15'0 0.0
2019-Feb-08 08:28N 28°28' W 016°15'0 0.0
2019-Feb-08 07:58N 28°28' W 016°15'0 0.0
2019-Feb-08 07:28N 28°28' W 016°15'0 0.0
2019-Feb-08 06:58N 28°28' W 016°15'0 0.0
2019-Feb-08 06:28N 28°28' W 016°15'0 0.0
2019-Feb-08 05:58N 28°28' W 016°15'0 0.0
2019-Feb-08 05:28N 28°28' W 016°15'0 0.0
2019-Feb-08 04:58N 28°28' W 016°15'0 0.0
2019-Feb-08 04:28N 28°28' W 016°15'0 0.0
2019-Feb-08 03:58N 28°28' W 016°15'0 0.0
2019-Feb-08 03:28N 28°28' W 016°15'0 0.0
2019-Feb-08 02:58N 28°28' W 016°15'0 0.0
2019-Feb-08 02:28N 28°28' W 016°15'0 0.0
2019-Feb-08 01:58N 28°28' W 016°15'0 0.0
2019-Feb-08 01:28N 28°28' W 016°15'0 0.0
2019-Feb-08 00:58N 28°28' W 016°15'0 0.0
2019-Feb-08 00:28N 28°28' W 016°15'0 0.0
2019-Feb-07 23:58N 28°28' W 016°15'0 0.0
2019-Feb-07 23:28N 28°28' W 016°15'0 0.0
2019-Feb-07 22:58N 28°28' W 016°15'0 0.0
2019-Feb-07 22:28N 28°28' W 016°15'0 0.0
2019-Feb-07 21:58N 28°28' W 016°15'0 0.0
2019-Feb-07 21:28N 28°28' W 016°15'0 0.0
2019-Feb-07 20:58N 28°28' W 016°15'0 0.0
2019-Feb-07 20:28N 28°28' W 016°15'0 0.0
2019-Feb-07 19:58N 28°28' W 016°15'0 0.0
2019-Feb-07 19:28N 28°28' W 016°15'0 0.0
2019-Feb-07 18:58N 28°28' W 016°15'0 0.0
2019-Feb-07 18:28N 28°28' W 016°15'0 0.0
2019-Feb-07 17:58N 28°28' W 016°15'0 0.0
2019-Feb-07 17:28N 28°28' W 016°15'0 0.0
2019-Feb-07 16:58N 28°28' W 016°15'0 0.0
2019-Feb-07 16:28N 28°28' W 016°15'0 0.0
2019-Feb-07 15:58N 28°28' W 016°15'0 0.0
2019-Feb-07 15:28N 28°28' W 016°15'0 0.0
2019-Feb-07 14:58N 28°28' W 016°15'0 0.0
2019-Feb-07 14:28N 28°28' W 016°15'0 0.0
2019-Feb-07 13:58N 28°28' W 016°15'0 0.0
2019-Feb-07 13:28N 28°28' W 016°15'0 0.0
2019-Feb-07 12:58N 28°28' W 016°15'0 0.0
2019-Feb-07 12:28N 28°28' W 016°15'0 0.0
2019-Feb-07 11:58N 28°28' W 016°15'0 0.0
2019-Feb-07 11:28N 28°28' W 016°15'0 0.0
2019-Feb-07 10:58N 28°28' W 016°15'0 0.0
2019-Feb-07 10:28N 28°28' W 016°15'0 0.0
2019-Feb-07 10:00N 28°28' W 016°15'1 2.5
2019-Feb-07 09:31N 28°28' W 016°13'2 3.5
2019-Feb-07 09:01N 28°26' W 016°13'1 2.4
2019-Feb-07 08:31N 28°25' W 016°14'1 2.5
2019-Feb-07 08:00N 28°24' W 016°15'1 2.5
2019-Feb-07 07:31N 28°23' W 016°15'1 2.9
2019-Feb-07 07:00N 28°22' W 016°16'5 3.7
2019-Feb-07 05:44N 28°18' W 016°18'1 3.7
2019-Feb-07 05:28N 28°17' W 016°19'21 4.2
2019-Feb-07 00:30N 27°58' W 016°29'40 2.8
2019-Feb-06 10:00N 28°12' W 017°12'0 0.0 1025.0 5.4 21.0 6.319.5
2019-Feb-06 07:00N 28°12' W 017°12'   1023.910.8 18.510.819.0

Dump ship's entire track history